createdAt,value
2023-04-08T00:01:41.054Z,101004.25
2023-04-08T00:04:14.614Z,101016.18
2023-04-08T00:06:47.115Z,101017.84
2023-04-08T00:09:19.540Z,101019.49
2023-04-08T00:11:51.767Z,101018.55
2023-04-08T00:14:24.292Z,101019.27
2023-04-08T00:16:56.761Z,101022.70
2023-04-08T00:19:29.277Z,101022.38
2023-04-08T00:22:02.017Z,101029.06
2023-04-08T00:24:34.148Z,101034.52
2023-04-08T00:27:06.927Z,101037.45
2023-04-08T00:29:39.182Z,101036.13
2023-04-08T00:32:12.046Z,101036.36
2023-04-08T00:34:44.487Z,101032.55
2023-04-08T00:37:17.612Z,101049.12
2023-04-08T00:39:50.677Z,101056.28
2023-04-08T00:42:23.164Z,101046.11
2023-04-08T00:44:55.724Z,101053.61
2023-04-08T00:47:28.163Z,101053.27
2023-04-08T00:50:00.994Z,101056.98
2023-04-08T00:52:33.345Z,101057.25
2023-04-08T00:55:06.633Z,101060.02
2023-04-08T00:57:39.399Z,101057.41
2023-04-08T01:00:13.884Z,101052.44
2023-04-08T01:02:52.804Z,101053.30
2023-04-08T01:05:38.752Z,101055.20
2023-04-08T01:08:13.048Z,101059.90
2023-04-08T01:10:49.486Z,101063.36
2023-04-08T01:13:24.870Z,101062.95
2023-04-08T01:15:57.878Z,101069.25
2023-04-08T01:18:32.167Z,101067.87
2023-04-08T01:21:06.470Z,101075.63
2023-04-08T01:23:47.869Z,101077.72
2023-04-08T01:26:26.818Z,101078.98
2023-04-08T01:29:01.910Z,101078.31
2023-04-08T01:31:35.281Z,101083.71
2023-04-08T01:34:08.987Z,101086.05
2023-04-08T01:36:42.798Z,101085.38
2023-04-08T01:39:17.650Z,101091.20
2023-04-08T01:41:54.909Z,101091.38
2023-04-08T01:44:27.534Z,101076.37
2023-04-08T01:47:00.841Z,101093.60
2023-04-08T01:49:33.626Z,101081.52
2023-04-08T01:52:07.899Z,101095.39
2023-04-08T01:54:40.586Z,101096.83
2023-04-08T01:57:17.062Z,101102.22
2023-04-08T01:59:52.844Z,101103.45
2023-04-08T02:02:26.738Z,101110.07
2023-04-08T02:04:59.480Z,101114.43
2023-04-08T02:07:32.775Z,101119.95
2023-04-08T02:10:06.161Z,101122.30
2023-04-08T02:12:38.850Z,101126.24
2023-04-08T02:15:16.931Z,101124.11
2023-04-08T02:17:51.781Z,101127.69
2023-04-08T02:20:32.267Z,101129.47
2023-04-08T02:23:15.068Z,101129.60
2023-04-08T02:25:48.778Z,101132.64
2023-04-08T02:28:22.325Z,101132.52
2023-04-08T02:30:56.779Z,101132.56
2023-04-08T02:33:30.354Z,101139.79
2023-04-08T02:36:03.670Z,101142.50
2023-04-08T02:38:36.022Z,101151.52
2023-04-08T02:41:08.517Z,101152.28
2023-04-08T02:43:40.945Z,101157.17
2023-04-08T02:46:28.273Z,101160.96
2023-04-08T02:49:01.019Z,101161.70
2023-04-08T02:51:33.467Z,101163.70
2023-04-08T02:54:05.881Z,101164.95
2023-04-08T02:56:38.382Z,101169.90
2023-04-08T02:59:10.475Z,101172.71
2023-04-08T03:01:42.930Z,101180.13
2023-04-08T03:04:14.978Z,101181.50
2023-04-08T03:06:47.173Z,101166.67
2023-04-08T03:09:19.435Z,101189.66
2023-04-08T03:11:54.849Z,101197.05
2023-04-08T03:14:27.394Z,101198.39
2023-04-08T03:16:59.885Z,101190.48
2023-04-08T03:19:32.043Z,101205.52
2023-04-08T03:22:04.323Z,101210.83
2023-04-08T03:24:36.775Z,101213.58
2023-04-08T03:27:09.591Z,101217.83
2023-04-08T03:29:42.028Z,101216.73
2023-04-08T03:32:14.721Z,101210.64
2023-04-08T03:34:47.011Z,101204.02
2023-04-08T03:37:19.647Z,101212.10
2023-04-08T03:39:51.947Z,101214.09
2023-04-08T03:42:24.767Z,101222.30
2023-04-08T03:44:57.466Z,101216.69
2023-04-08T03:47:30.765Z,101213.30
2023-04-08T03:50:03.515Z,101233.80
2023-04-08T03:52:35.796Z,101231.08
2023-04-08T03:55:09.465Z,101228.86
2023-04-08T03:57:41.811Z,101231.59
2023-04-08T04:00:16.033Z,101220.91
2023-04-08T04:02:50.377Z,101239.78
2023-04-08T04:05:22.741Z,101236.61
2023-04-08T04:07:55.143Z,101242.17
2023-04-08T04:10:27.357Z,101241.69
2023-04-08T04:13:00.011Z,101240.04
2023-04-08T04:15:32.923Z,101240.85
2023-04-08T04:18:05.611Z,101243.44
2023-04-08T04:20:40.724Z,101243.83
2023-04-08T04:23:13.286Z,101249.61
2023-04-08T04:25:45.910Z,101254.43
2023-04-08T04:28:18.481Z,101256.62
2023-04-08T04:30:50.729Z,101261.17
2023-04-08T04:33:23.104Z,101266.40
2023-04-08T04:35:56.128Z,101254.10
2023-04-08T04:38:28.541Z,101269.24
2023-04-08T04:41:01.744Z,101269.98
2023-04-08T04:43:34.325Z,101266.41
2023-04-08T04:46:09.096Z,101267.28
2023-04-08T04:48:41.838Z,101271.45
2023-04-08T04:51:14.317Z,101274.28
2023-04-08T04:53:46.688Z,101278.47
2023-04-08T04:56:19.504Z,101281.04
2023-04-08T04:58:52.288Z,101287.84
2023-04-08T05:01:24.657Z,101291.99
2023-04-08T05:03:57.139Z,101292.58
2023-04-08T05:06:29.462Z,101294.41
2023-04-08T05:09:02.194Z,101296.42
2023-04-08T05:11:34.540Z,101298.56
2023-04-08T05:14:07.337Z,101301.42
2023-04-08T05:16:40.347Z,101305.36
2023-04-08T05:19:13.196Z,101302.11
2023-04-08T05:21:45.780Z,101306.09
2023-04-08T05:24:18.231Z,101313.13
2023-04-08T05:26:53.385Z,101309.35
2023-04-08T05:29:25.953Z,101313.37
2023-04-08T05:31:58.680Z,101316.30
2023-04-08T05:34:32.498Z,101308.91
2023-04-08T05:37:06.339Z,101320.34
2023-04-08T05:39:38.722Z,101320.89
2023-04-08T05:42:12.985Z,101321.03
2023-04-08T05:44:46.203Z,101323.73
2023-04-08T05:47:18.719Z,101327.15
2023-04-08T05:49:51.368Z,101329.94
2023-04-08T05:52:23.620Z,101326.79
2023-04-08T05:54:56.022Z,101335.17
2023-04-08T05:57:28.444Z,101329.58
2023-04-08T06:00:00.929Z,101344.71
2023-04-08T06:02:33.330Z,101346.08
2023-04-08T06:05:06.697Z,101347.53
2023-04-08T06:07:39.040Z,101351.56
2023-04-08T06:10:14.119Z,101356.73
2023-04-08T06:12:46.181Z,101360.02
2023-04-08T06:15:18.661Z,101360.20
2023-04-08T06:17:51.692Z,101363.90
2023-04-08T06:20:24.100Z,101367.02
2023-04-08T06:22:56.214Z,101368.11
2023-04-08T06:25:28.621Z,101362.14
2023-04-08T06:28:01.042Z,101377.73
2023-04-08T06:30:33.238Z,101381.16
2023-04-08T06:33:05.583Z,101382.93
2023-04-08T06:35:38.637Z,101384.73
2023-04-08T06:38:11.052Z,101391.89
2023-04-08T06:40:43.273Z,101390.14
2023-04-08T06:43:15.473Z,101391.71
2023-04-08T06:45:47.950Z,101406.20
2023-04-08T06:48:21.060Z,101401.56
2023-04-08T06:50:53.272Z,101406.23
2023-04-08T06:53:27.208Z,101406.01
2023-04-08T06:55:59.418Z,101411.25
2023-04-08T06:58:31.447Z,101416.83
2023-04-08T07:01:04.242Z,101418.05
2023-04-08T07:03:37.297Z,101418.55
2023-04-08T07:06:09.726Z,101424.76
2023-04-08T07:08:42.478Z,101427.14
2023-04-08T07:11:14.676Z,101437.61
2023-04-08T07:13:46.763Z,101430.32
2023-04-08T07:16:19.190Z,101433.19
2023-04-08T07:18:52.177Z,101434.33
2023-04-08T07:21:24.722Z,101436.35
2023-04-08T07:23:57.254Z,101438.17
2023-04-08T07:26:29.710Z,101441.00
2023-04-08T07:29:02.179Z,101451.75
2023-04-08T07:31:34.568Z,101450.34
2023-04-08T07:34:06.803Z,101450.80
2023-04-08T07:36:39.390Z,101451.36
2023-04-08T07:39:11.486Z,101454.50
2023-04-08T07:41:43.720Z,101462.18
2023-04-08T07:44:17.379Z,101459.63
2023-04-08T07:46:51.920Z,101459.52
2023-04-08T07:49:22.856Z,101462.19
2023-04-08T07:51:55.059Z,101465.92
2023-04-08T07:54:27.172Z,101464.58
2023-04-08T07:57:00.183Z,101465.05
2023-04-08T07:59:33.062Z,101469.92
2023-04-08T08:02:05.546Z,101472.22
2023-04-08T08:04:37.803Z,101473.91
2023-04-08T08:07:10.766Z,101467.05
2023-04-08T08:09:43.012Z,101479.54
2023-04-08T08:12:15.061Z,101479.38
2023-04-08T08:14:47.351Z,101482.63
2023-04-08T08:17:20.011Z,101486.92
2023-04-08T08:19:53.061Z,101487.01
2023-04-08T08:22:25.826Z,101491.54
2023-04-08T08:25:00.461Z,101493.25
2023-04-08T08:27:34.560Z,101498.63
2023-04-08T08:30:08.300Z,101500.39
2023-04-08T08:32:40.757Z,101500.39
2023-04-08T08:35:13.285Z,101502.41
2023-04-08T08:37:45.767Z,101504.73
2023-04-08T08:40:18.336Z,101507.48
2023-04-08T08:42:54.622Z,101496.03
2023-04-08T08:45:27.108Z,101510.02
2023-04-08T08:48:01.296Z,101515.00
2023-04-08T08:50:34.315Z,101514.36
2023-04-08T08:53:06.523Z,101513.63
2023-04-08T08:56:05.632Z,101512.64
2023-04-08T08:58:31.838Z,101517.09
2023-04-08T09:01:04.031Z,101512.71
2023-04-08T09:03:36.947Z,101513.75
2023-04-08T09:08:41.571Z,101520.75
2023-04-08T09:11:18.338Z,101518.86
2023-04-08T09:13:51.856Z,101526.18
2023-04-08T09:16:24.314Z,101529.99
2023-04-08T09:18:57.145Z,101526.64
2023-04-08T09:21:29.635Z,101531.48
2023-04-08T09:24:02.342Z,101529.61
2023-04-08T09:26:34.460Z,101531.17
2023-04-08T09:29:24.344Z,101531.34
2023-04-08T09:31:59.702Z,101520.23
2023-04-08T09:34:34.409Z,101533.90
2023-04-08T09:37:07.281Z,101534.67
2023-04-08T09:39:39.669Z,101536.88
2023-04-08T09:42:14.191Z,101535.48
2023-04-08T09:44:48.758Z,101541.07
2023-04-08T09:47:27.199Z,101538.77
2023-04-08T09:50:07.089Z,101542.92
2023-04-08T09:52:50.466Z,101543.83
2023-04-08T09:55:26.253Z,101542.86
2023-04-08T09:58:03.321Z,101538.86
2023-04-08T10:00:44.101Z,101540.69
2023-04-08T10:03:27.828Z,101537.32
2023-04-08T10:06:03.377Z,101538.14
2023-04-08T10:08:36.478Z,101530.70
2023-04-08T10:11:08.965Z,101535.91
2023-04-08T10:13:41.417Z,101539.23
2023-04-08T10:16:25.973Z,101540.85
2023-04-08T10:18:58.833Z,101545.59
2023-04-08T10:21:39.203Z,101546.21
2023-04-08T10:24:12.728Z,101543.96
2023-04-08T10:26:46.356Z,101547.07
2023-04-08T10:29:44.129Z,101545.16
2023-04-08T10:32:32.077Z,101537.98
2023-04-08T10:35:04.587Z,101545.39
2023-04-08T10:37:36.945Z,101546.05
2023-04-08T10:40:19.835Z,101546.23
2023-04-08T10:42:57.433Z,101549.89
2023-04-08T10:45:29.980Z,101551.68
2023-04-08T10:48:14.493Z,101551.79
2023-04-08T10:50:53.253Z,101553.77
2023-04-08T10:53:30.847Z,101545.84
2023-04-08T10:56:13.402Z,101542.22
2023-04-08T10:58:52.824Z,101541.91
2023-04-08T11:01:26.250Z,101545.17
2023-04-08T11:03:59.988Z,101543.46
2023-04-08T11:06:33.154Z,101546.95
2023-04-08T11:09:07.089Z,101539.38
2023-04-08T11:11:39.424Z,101542.54
2023-04-08T11:14:11.964Z,101542.56
2023-04-08T11:16:44.126Z,101544.23
2023-04-08T11:19:16.970Z,101541.86
2023-04-08T11:21:49.372Z,101541.95
2023-04-08T11:24:22.713Z,101544.13
2023-04-08T11:26:55.221Z,101543.82
2023-04-08T11:29:28.117Z,101547.05
2023-04-08T11:32:00.614Z,101549.33
2023-04-08T11:34:32.947Z,101551.61
2023-04-08T11:37:05.168Z,101559.46
2023-04-08T11:39:42.612Z,101547.41
2023-04-08T11:42:29.858Z,101547.10
2023-04-08T11:45:02.207Z,101542.61
2023-04-08T11:47:35.825Z,101559.88
2023-04-08T11:50:09.901Z,101561.95
2023-04-08T11:52:47.033Z,101560.76
2023-04-08T11:55:28.056Z,101557.63
2023-04-08T11:58:06.466Z,101562.06
2023-04-08T12:00:39.504Z,101562.49
2023-04-08T12:03:12.261Z,101561.14
2023-04-08T12:05:44.615Z,101560.84
2023-04-08T12:08:17.929Z,101564.48
2023-04-08T12:10:50.089Z,101562.95
2023-04-08T12:13:22.498Z,101562.77
2023-04-08T12:15:54.680Z,101565.41
2023-04-08T12:18:27.468Z,101565.13
2023-04-08T12:20:59.917Z,101565.48
2023-04-08T12:23:32.530Z,101560.62
2023-04-08T12:26:05.015Z,101558.39
2023-04-08T12:28:37.801Z,101560.12
2023-04-08T12:31:10.495Z,101533.77
2023-04-08T12:33:42.802Z,101557.64
2023-04-08T12:36:15.598Z,101554.95
2023-04-08T12:38:47.842Z,101551.83
2023-04-08T12:41:21.895Z,101540.73
2023-04-08T12:43:55.163Z,101540.91
2023-04-08T12:46:28.524Z,101538.06
2023-04-08T12:49:04.560Z,101548.45
2023-04-08T12:51:37.905Z,101549.45
2023-04-08T12:54:10.089Z,101545.15
2023-04-08T12:56:43.350Z,101523.88
2023-04-08T12:59:16.447Z,101542.55
2023-04-08T13:01:48.804Z,101544.38
2023-04-08T13:04:21.220Z,101539.97
2023-04-08T13:06:53.677Z,101541.71
2023-04-08T13:09:25.962Z,101541.30
2023-04-08T13:11:58.333Z,101528.98
2023-04-08T13:14:30.881Z,101538.73
2023-04-08T13:17:03.129Z,101537.89
2023-04-08T13:19:35.709Z,101538.33
2023-04-08T13:22:07.891Z,101544.00
2023-04-08T13:24:40.236Z,101537.76
2023-04-08T13:27:12.568Z,101539.38
2023-04-08T13:29:45.281Z,101535.27
2023-04-08T13:32:17.507Z,101539.58
2023-04-08T13:34:50.402Z,101542.18
2023-04-08T13:37:22.990Z,101537.92
2023-04-08T13:39:55.221Z,101533.70
2023-04-08T13:42:27.372Z,101535.91
2023-04-08T13:44:59.553Z,101534.34
2023-04-08T13:47:32.317Z,101538.34
2023-04-08T13:50:04.695Z,101539.92
2023-04-08T13:52:37.107Z,101534.76
2023-04-08T13:55:10.651Z,101536.83
2023-04-08T13:57:43.176Z,101535.33
2023-04-08T14:00:17.403Z,101532.86
2023-04-08T14:02:51.086Z,101530.56
2023-04-08T14:05:23.575Z,101525.73
2023-04-08T14:07:55.697Z,101529.83
2023-04-08T14:10:28.332Z,101528.02
2023-04-08T14:13:00.624Z,101526.88
2023-04-08T14:15:33.118Z,101525.79
2023-04-08T14:18:07.191Z,101523.02
2023-04-08T14:20:41.500Z,101521.44
2023-04-08T14:23:14.270Z,101515.37
2023-04-08T14:25:46.717Z,101519.52
2023-04-08T14:28:19.232Z,101516.86
2023-04-08T14:30:51.698Z,101516.16
2023-04-08T14:33:24.119Z,101508.77
2023-04-08T14:35:56.772Z,101512.86
2023-04-08T14:38:29.274Z,101510.58
2023-04-08T14:41:01.750Z,101509.62
2023-04-08T14:43:33.959Z,101508.05
2023-04-08T14:46:06.706Z,101506.34
2023-04-08T14:48:39.157Z,101507.96
2023-04-08T14:51:11.437Z,101494.14
2023-04-08T14:53:43.943Z,101509.31
2023-04-08T14:56:16.254Z,101506.44
2023-04-08T14:58:48.898Z,101504.92
2023-04-08T15:01:21.870Z,101505.40
2023-04-08T15:03:54.119Z,101507.65
2023-04-08T15:06:27.672Z,101505.45
2023-04-08T15:08:59.917Z,101502.74
2023-04-08T15:11:32.427Z,101504.96
2023-04-08T15:14:04.562Z,101502.11
2023-04-08T15:16:36.917Z,101507.44
2023-04-08T15:19:09.255Z,101504.63
2023-04-08T15:21:41.930Z,101499.42
2023-04-08T15:24:14.247Z,101504.45
2023-04-08T15:26:46.604Z,101501.98
2023-04-08T15:29:19.231Z,101507.60
2023-04-08T15:31:52.768Z,101508.83
2023-04-08T15:34:24.824Z,101507.33
2023-04-08T15:36:57.638Z,101510.97
2023-04-08T15:39:29.940Z,101513.27
2023-04-08T15:42:02.665Z,101514.09
2023-04-08T15:44:35.432Z,101518.68
2023-04-08T15:47:08.182Z,101520.55
2023-04-08T15:49:41.281Z,101518.36
2023-04-08T15:52:13.675Z,101522.55
2023-04-08T15:54:46.281Z,101522.63
2023-04-08T15:57:18.478Z,101524.71
2023-04-08T15:59:50.903Z,101520.19
2023-04-08T16:02:23.576Z,101523.04
2023-04-08T16:04:56.078Z,101525.92
2023-04-08T16:07:28.554Z,101514.48
2023-04-08T16:10:01.120Z,101525.82
2023-04-08T16:12:33.510Z,101525.37
2023-04-08T16:15:06.778Z,101524.95
2023-04-08T16:17:39.015Z,101525.11
2023-04-08T16:20:12.782Z,101527.25
2023-04-08T16:22:44.958Z,101521.73
2023-04-08T16:25:17.335Z,101529.01
2023-04-08T16:27:49.718Z,101529.46
2023-04-08T16:30:22.290Z,101532.70
2023-04-08T16:32:55.279Z,101534.30
2023-04-08T16:35:27.595Z,101533.66
2023-04-08T16:38:00.279Z,101536.83
2023-04-08T16:40:33.972Z,101535.63
2023-04-08T16:43:06.516Z,101530.98
2023-04-08T16:45:39.114Z,101535.05
2023-04-08T16:48:12.698Z,101535.31
2023-04-08T16:50:44.851Z,101536.08
2023-04-08T16:53:17.162Z,101536.75
2023-04-08T16:55:49.272Z,101536.55
2023-04-08T16:58:21.844Z,101541.10
2023-04-08T17:00:54.488Z,101538.65
2023-04-08T17:03:28.564Z,101540.43
2023-04-08T17:06:10.582Z,101543.11
2023-04-08T17:08:43.646Z,101545.35
2023-04-08T17:11:16.736Z,101546.36
2023-04-08T17:13:50.035Z,101545.61
2023-04-08T17:16:22.337Z,101546.16
2023-04-08T17:18:56.938Z,101534.11
2023-04-08T17:21:29.384Z,101544.70
2023-04-08T17:24:01.733Z,101548.11
2023-04-08T17:26:34.173Z,101553.19
2023-04-08T17:29:06.787Z,101554.20
2023-04-08T17:31:40.230Z,101541.05
2023-04-08T17:34:13.111Z,101551.84
2023-04-08T17:36:45.982Z,101553.90
2023-04-08T17:39:18.713Z,101556.70
2023-04-08T17:41:50.878Z,101554.24
2023-04-08T17:44:29.582Z,101559.70
2023-04-08T17:47:02.365Z,101560.61
2023-04-08T17:49:34.724Z,101564.38
2023-04-08T17:52:07.196Z,101562.52
2023-04-08T17:54:41.550Z,101563.16
2023-04-08T17:57:14.270Z,101566.51
2023-04-08T17:59:46.692Z,101577.48
2023-04-08T18:02:19.220Z,101576.56
2023-04-08T18:04:52.561Z,101580.08
2023-04-08T18:07:24.800Z,101583.89
2023-04-08T18:09:57.115Z,101583.16
2023-04-08T18:12:30.764Z,101583.33
2023-04-08T18:15:03.421Z,101587.57
2023-04-08T18:17:37.333Z,101592.13
2023-04-08T18:20:11.263Z,101595.83
2023-04-08T18:22:43.659Z,101590.00
2023-04-08T18:25:15.787Z,101601.29
2023-04-08T18:27:47.958Z,101591.53
2023-04-08T18:30:20.675Z,101608.13
2023-04-08T18:32:53.082Z,101609.08
2023-04-08T18:35:26.928Z,101606.45
2023-04-08T18:37:59.364Z,101607.80
2023-04-08T18:40:32.114Z,101610.64
2023-04-08T18:43:05.069Z,101613.86
2023-04-08T18:45:37.662Z,101617.13
2023-04-08T18:48:12.349Z,101620.56
2023-04-08T18:50:43.040Z,101622.77
2023-04-08T18:53:15.302Z,101626.47
2023-04-08T18:55:47.502Z,101624.96
2023-04-08T18:58:19.689Z,101625.90
2023-04-08T19:00:52.078Z,101630.67
2023-04-08T19:03:26.179Z,101626.02
2023-04-08T19:05:59.001Z,101631.58
2023-04-08T19:08:32.083Z,101629.29
2023-04-08T19:11:04.984Z,101628.37
2023-04-08T19:13:37.424Z,101627.17
2023-04-08T19:16:11.046Z,101626.80
2023-04-08T19:18:43.229Z,101624.96
2023-04-08T19:21:15.483Z,101626.81
2023-04-08T19:23:49.009Z,101622.88
2023-04-08T19:26:21.344Z,101622.52
2023-04-08T19:28:53.476Z,101611.66
2023-04-08T19:31:25.656Z,101626.36
2023-04-08T19:33:57.984Z,101624.02
2023-04-08T19:36:30.943Z,101625.55
2023-04-08T19:39:03.684Z,101625.66
2023-04-08T19:41:35.775Z,101627.21
2023-04-08T19:44:07.924Z,101626.91
2023-04-08T19:46:41.432Z,101628.17
2023-04-08T19:49:13.696Z,101614.13
2023-04-08T19:51:46.243Z,101625.45
2023-04-08T19:54:18.314Z,101615.05
2023-04-08T19:56:50.670Z,101615.44
2023-04-08T19:59:24.968Z,101625.02
2023-04-08T20:01:57.929Z,101626.31
2023-04-08T20:04:30.996Z,101629.73
2023-04-08T20:07:03.799Z,101631.80
2023-04-08T20:09:36.162Z,101635.86
2023-04-08T20:12:09.211Z,101639.01
2023-04-08T20:14:45.095Z,101636.51
2023-04-08T20:17:18.198Z,101640.91
2023-04-08T20:19:50.345Z,101624.93
2023-04-08T20:22:22.791Z,101641.25
2023-04-08T20:24:55.626Z,101638.85
2023-04-08T20:27:27.985Z,101638.03
2023-04-08T20:30:01.352Z,101637.00
2023-04-08T20:32:34.805Z,101633.98
2023-04-08T20:35:07.809Z,101635.74
2023-04-08T20:37:40.457Z,101634.95
2023-04-08T20:40:14.963Z,101634.42
2023-04-08T20:42:48.497Z,101633.67
2023-04-08T20:45:20.961Z,101634.73
2023-04-08T20:47:54.184Z,101630.92
2023-04-08T20:50:28.563Z,101627.61
2023-04-08T20:53:00.793Z,101633.17
2023-04-08T20:55:32.956Z,101633.56
2023-04-08T20:58:07.620Z,101630.75
2023-04-08T21:00:38.311Z,101632.48
2023-04-08T21:03:10.412Z,101634.17
2023-04-08T21:05:43.099Z,101637.15
2023-04-08T21:08:15.973Z,101637.55
2023-04-08T21:10:48.196Z,101632.47
2023-04-08T21:13:20.539Z,101621.20
2023-04-08T21:15:52.761Z,101632.80
2023-04-08T21:18:25.024Z,101636.65
2023-04-08T21:20:57.775Z,101639.59
2023-04-08T21:23:30.332Z,101639.12
2023-04-08T21:26:03.574Z,101640.93
2023-04-08T21:28:36.258Z,101640.19
2023-04-08T21:31:12.569Z,101637.13
2023-04-08T21:33:44.897Z,101636.46
2023-04-08T21:36:17.475Z,101641.76
2023-04-08T21:38:51.072Z,101635.59
2023-04-08T21:41:24.354Z,101640.19
2023-04-08T21:43:57.201Z,101626.92
2023-04-08T21:46:29.523Z,101637.06
2023-04-08T21:49:02.062Z,101641.84
2023-04-08T21:51:34.770Z,101644.63
2023-04-08T21:54:07.030Z,101643.19
2023-04-08T21:56:39.535Z,101642.38
2023-04-08T21:59:11.893Z,101643.89
2023-04-08T22:01:44.618Z,101645.98
2023-04-08T22:04:17.071Z,101645.81
2023-04-08T22:06:49.935Z,101642.91
2023-04-08T22:09:22.460Z,101639.67
2023-04-08T22:11:54.901Z,101639.26
2023-04-08T22:14:27.148Z,101633.20
2023-04-08T22:17:00.374Z,101639.05
2023-04-08T22:19:32.998Z,101638.89
2023-04-08T22:22:05.413Z,101644.29
2023-04-08T22:24:38.293Z,101637.81
2023-04-08T22:27:11.136Z,101640.53
2023-04-08T22:29:43.584Z,101638.67
2023-04-08T22:32:16.286Z,101640.09
2023-04-08T22:34:48.491Z,101638.23
2023-04-08T22:37:21.231Z,101638.49
2023-04-08T22:39:55.161Z,101631.80
2023-04-08T22:42:27.453Z,101635.14
2023-04-08T22:44:59.936Z,101634.36
2023-04-08T22:47:32.487Z,101630.64
2023-04-08T22:50:05.069Z,101634.11
2023-04-08T22:52:37.218Z,101636.07
2023-04-08T22:55:12.295Z,101632.86
2023-04-08T22:57:44.667Z,101636.22
2023-04-08T23:00:17.585Z,101637.90
2023-04-08T23:02:49.765Z,101639.64
2023-04-08T23:05:22.209Z,101629.20
2023-04-08T23:07:54.509Z,101635.02
2023-04-08T23:10:26.893Z,101637.41
2023-04-08T23:12:59.063Z,101634.03
2023-04-08T23:15:31.708Z,101631.02
2023-04-08T23:18:04.002Z,101632.74
2023-04-08T23:20:36.736Z,101623.93
2023-04-08T23:23:08.820Z,101632.63
2023-04-08T23:25:41.029Z,101629.15
2023-04-08T23:28:13.334Z,101628.92
2023-04-08T23:30:46.918Z,101623.77
2023-04-08T23:33:19.250Z,101618.60
2023-04-08T23:35:51.619Z,101619.70
2023-04-08T23:38:23.766Z,101618.08
2023-04-08T23:40:56.824Z,101612.92
2023-04-08T23:43:28.923Z,101618.33
2023-04-08T23:46:01.427Z,101602.79
2023-04-08T23:48:33.704Z,101615.65
2023-04-08T23:51:06.949Z,101611.87
2023-04-08T23:53:39.208Z,101607.02
2023-04-08T23:56:12.656Z,101606.70
2023-04-08T23:58:44.725Z,101606.30
